sensor_id;sensor_type;location;lat;lon;timestamp;pressure;altitude;pressure_sealevel;temperature;humidity
75418;BME280;63997;52.112;5.420;2023-11-21T00:02:17;101181.94;;;6.13;100.00
75418;BME280;63997;52.112;5.420;2023-11-21T00:04:43;101186.22;;;6.03;100.00
75418;BME280;63997;52.112;5.420;2023-11-21T00:07:10;101181.50;;;6.00;100.00
75418;BME280;63997;52.112;5.420;2023-11-21T00:09:36;101188.97;;;5.93;100.00
75418;BME280;63997;52.112;5.420;2023-11-21T00:12:03;101187.41;;;5.92;100.00
75418;BME280;63997;52.112;5.420;2023-11-21T00:14:29;101186.88;;;5.90;100.00
75418;BME280;63997;52.112;5.420;2023-11-21T00:16:56;101187.66;;;5.91;100.00
75418;BME280;63997;52.112;5.420;2023-11-21T00:19:22;101188.97;;;5.93;100.00
75418;BME280;63997;52.112;5.420;2023-11-21T00:21:49;101190.03;;;5.92;100.00
75418;BME280;63997;52.112;5.420;2023-11-21T00:24:16;101190.03;;;5.92;100.00
75418;BME280;63997;52.112;5.420;2023-11-21T00:26:43;101190.28;;;5.91;100.00
75418;BME280;63997;52.112;5.420;2023-11-21T00:29:10;101191.09;;;5.91;100.00
75418;BME280;63997;52.112;5.420;2023-11-21T00:31:37;101193.75;;;5.91;100.00
75418;BME280;63997;52.112;5.420;2023-11-21T00:34:04;101198.47;;;5.89;100.00
75418;BME280;63997;52.112;5.420;2023-11-21T00:36:31;101198.75;;;5.88;100.00
75418;BME280;63997;52.112;5.420;2023-11-21T00:38:58;101202.97;;;5.89;100.00
75418;BME280;63997;52.112;5.420;2023-11-21T00:41:25;101205.88;;;5.87;100.00
75418;BME280;63997;52.112;5.420;2023-11-21T00:43:54;101201.69;;;5.86;100.00
75418;BME280;63997;52.112;5.420;2023-11-21T00:46:21;101204.84;;;5.83;100.00
75418;BME280;63997;52.112;5.420;2023-11-21T00:48:48;101206.97;;;5.86;100.00
75418;BME280;63997;52.112;5.420;2023-11-21T00:51:14;101207.50;;;5.83;100.00
75418;BME280;63997;52.112;5.420;2023-11-21T00:53:40;101204.13;;;5.77;100.00
75418;BME280;63997;52.112;5.420;2023-11-21T00:56:07;101210.78;;;5.70;100.00
75418;BME280;63997;52.112;5.420;2023-11-21T00:58:35;101214.53;;;5.64;100.00
75418;BME280;63997;52.112;5.420;2023-11-21T01:01:01;101215.06;;;5.61;100.00
75418;BME280;63997;52.112;5.420;2023-11-21T01:03:29;101225.41;;;5.57;100.00
75418;BME280;63997;52.112;5.420;2023-11-21T01:05:56;101226.72;;;5.54;100.00
75418;BME280;63997;52.112;5.420;2023-11-21T01:08:23;101235.44;;;5.55;100.00
75418;BME280;63997;52.112;5.420;2023-11-21T01:10:50;101232.25;;;5.58;100.00
75418;BME280;63997;52.112;5.420;2023-11-21T01:13:16;101235.66;;;5.64;100.00
75418;BME280;63997;52.112;5.420;2023-11-21T01:15:43;101240.63;;;5.65;100.00
75418;BME280;63997;52.112;5.420;2023-11-21T01:18:09;101240.34;;;5.67;100.00
75418;BME280;63997;52.112;5.420;2023-11-21T01:20:36;101241.16;;;5.67;100.00
75418;BME280;63997;52.112;5.420;2023-11-21T01:23:02;101242.72;;;5.68;100.00
75418;BME280;63997;52.112;5.420;2023-11-21T01:25:29;101242.50;;;5.65;100.00
75418;BME280;63997;52.112;5.420;2023-11-21T01:27:55;101236.16;;;5.66;100.00
75418;BME280;63997;52.112;5.420;2023-11-21T01:30:22;101235.66;;;5.64;100.00
75418;BME280;63997;52.112;5.420;2023-11-21T01:32:48;101233.03;;;5.58;100.00
75418;BME280;63997;52.112;5.420;2023-11-21T01:35:15;101243.09;;;5.56;100.00
75418;BME280;63997;52.112;5.420;2023-11-21T01:37:41;101244.94;;;5.56;100.00
75418;BME280;63997;52.112;5.420;2023-11-21T01:40:09;101247.00;;;5.59;100.00
75418;BME280;63997;52.112;5.420;2023-11-21T01:42:41;101238.81;;;5.61;100.00
75418;BME280;63997;52.112;5.420;2023-11-21T01:45:10;101250.41;;;5.65;100.00
75418;BME280;63997;52.112;5.420;2023-11-21T01:47:39;101245.63;;;5.67;100.00
75418;BME280;63997;52.112;5.420;2023-11-21T01:50:08;101255.41;;;5.66;100.00
75418;BME280;63997;52.112;5.420;2023-11-21T01:52:38;101258.56;;;5.68;100.00
75418;BME280;63997;52.112;5.420;2023-11-21T01:55:07;101258.00;;;5.71;100.00
75418;BME280;63997;52.112;5.420;2023-11-21T01:57:35;101258.78;;;5.72;100.00
75418;BME280;63997;52.112;5.420;2023-11-21T02:00:04;101258.25;;;5.75;100.00
75418;BME280;63997;52.112;5.420;2023-11-21T02:02:46;101253.97;;;5.84;100.00
75418;BME280;63997;52.112;5.420;2023-11-21T02:05:16;101257.59;;;5.88;100.00
75418;BME280;63997;52.112;5.420;2023-11-21T02:07:46;101257.88;;;5.92;100.00
75418;BME280;63997;52.112;5.420;2023-11-21T02:10:15;101270.00;;;5.93;100.00
75418;BME280;63997;52.112;5.420;2023-11-21T02:12:42;101275.53;;;5.96;100.00
75418;BME280;63997;52.112;5.420;2023-11-21T02:15:10;101282.09;;;5.99;100.00
75418;BME280;63997;52.112;5.420;2023-11-21T02:17:42;101290.56;;;6.01;100.00
75418;BME280;63997;52.112;5.420;2023-11-21T02:20:13;101284.69;;;6.04;100.00
75418;BME280;63997;52.112;5.420;2023-11-21T02:22:49;101294.44;;;6.08;100.00
75418;BME280;63997;52.112;5.420;2023-11-21T02:25:18;101297.03;;;6.14;100.00
75418;BME280;63997;52.112;5.420;2023-11-21T02:27:45;101292.78;;;6.18;100.00
75418;BME280;63997;52.112;5.420;2023-11-21T02:30:15;101295.13;;;6.19;100.00
75418;BME280;63997;52.112;5.420;2023-11-21T02:32:42;101290.63;;;6.20;100.00
75418;BME280;63997;52.112;5.420;2023-11-21T02:35:15;101294.31;;;6.24;100.00
75418;BME280;63997;52.112;5.420;2023-11-21T02:37:42;101287.97;;;6.25;100.00
75418;BME280;63997;52.112;5.420;2023-11-21T02:40:09;101293.97;;;6.30;100.00
75418;BME280;63997;52.112;5.420;2023-11-21T02:42:41;101289.19;;;6.32;100.00
75418;BME280;63997;52.112;5.420;2023-11-21T02:45:08;101304.22;;;6.37;100.00
75418;BME280;63997;52.112;5.420;2023-11-21T02:47:34;101297.31;;;6.41;100.00
75418;BME280;63997;52.112;5.420;2023-11-21T02:50:01;101302.81;;;6.45;100.00
75418;BME280;63997;52.112;5.420;2023-11-21T02:52:27;101294.03;;;6.49;100.00
75418;BME280;63997;52.112;5.420;2023-11-21T02:54:54;101297.44;;;6.55;100.00
75418;BME280;63997;52.112;5.420;2023-11-21T02:57:20;101288.94;;;6.58;100.00
75418;BME280;63997;52.112;5.420;2023-11-21T02:59:47;101294.97;;;6.63;100.00
75418;BME280;63997;52.112;5.420;2023-11-21T03:02:13;101290.69;;;6.68;100.00
75418;BME280;63997;52.112;5.420;2023-11-21T03:04:40;101294.34;;;6.72;100.00
75418;BME280;63997;52.112;5.420;2023-11-21T03:07:06;101295.34;;;6.76;100.00
75418;BME280;63997;52.112;5.420;2023-11-21T03:09:33;101294.00;;;6.78;100.00
75418;BME280;63997;52.112;5.420;2023-11-21T03:11:59;101295.31;;;6.81;100.00
75418;BME280;63997;52.112;5.420;2023-11-21T03:14:25;101300.00;;;6.84;100.00
75418;BME280;63997;52.112;5.420;2023-11-21T03:16:52;101289.97;;;6.86;100.00
75418;BME280;63997;52.112;5.420;2023-11-21T03:19:18;101285.16;;;6.88;100.00
75418;BME280;63997;52.112;5.420;2023-11-21T03:21:45;101290.44;;;6.88;100.00
75418;BME280;63997;52.112;5.420;2023-11-21T03:24:11;101289.91;;;6.91;100.00
75418;BME280;63997;52.112;5.420;2023-11-21T03:26:38;101296.97;;;6.96;100.00
75418;BME280;63997;52.112;5.420;2023-11-21T03:29:04;101303.28;;;7.00;100.00
75418;BME280;63997;52.112;5.420;2023-11-21T03:31:31;101302.97;;;7.01;100.00
75418;BME280;63997;52.112;5.420;2023-11-21T03:33:57;101303.50;;;7.03;100.00
75418;BME280;63997;52.112;5.420;2023-11-21T03:36:24;101306.34;;;7.07;100.00
75418;BME280;63997;52.112;5.420;2023-11-21T03:38:51;101306.88;;;7.09;100.00
75418;BME280;63997;52.112;5.420;2023-11-21T03:41:18;101302.38;;;7.09;100.00
75418;BME280;63997;52.112;5.420;2023-11-21T03:43:44;101309.72;;;7.12;100.00
75418;BME280;63997;52.112;5.420;2023-11-21T03:46:11;101304.94;;;7.14;100.00
75418;BME280;63997;52.112;5.420;2023-11-21T03:48:38;101308.59;;;7.19;100.00
75418;BME280;63997;52.112;5.420;2023-11-21T03:51:05;101310.66;;;7.22;100.00
75418;BME280;63997;52.112;5.420;2023-11-21T03:53:31;101315.41;;;7.25;100.00
75418;BME280;63997;52.112;5.420;2023-11-21T03:55:58;101326.97;;;7.29;100.00
75418;BME280;63997;52.112;5.420;2023-11-21T03:58:24;101325.63;;;7.31;100.00
75418;BME280;63997;52.112;5.420;2023-11-21T04:00:51;101327.97;;;7.33;100.00
75418;BME280;63997;52.112;5.420;2023-11-21T04:03:17;101332.72;;;7.36;100.00
75418;BME280;63997;52.112;5.420;2023-11-21T04:05:45;101325.28;;;7.38;100.00
75418;BME280;63997;52.112;5.420;2023-11-21T04:08:12;101335.31;;;7.41;100.00
75418;BME280;63997;52.112;5.420;2023-11-21T04:10:38;101339.22;;;7.43;100.00
75418;BME280;63997;52.112;5.420;2023-11-21T04:13:06;101342.34;;;7.46;100.00
75418;BME280;63997;52.112;5.420;2023-11-21T04:15:32;101344.75;;;7.47;100.00
75418;BME280;63997;52.112;5.420;2023-11-21T04:17:59;101341.81;;;7.49;100.00
75418;BME280;63997;52.112;5.420;2023-11-21T04:20:25;101355.53;;;7.51;100.00
75418;BME280;63997;52.112;5.420;2023-11-21T04:22:52;101353.41;;;7.53;100.00
75418;BME280;63997;52.112;5.420;2023-11-21T04:25:18;101353.09;;;7.54;100.00
75418;BME280;63997;52.112;5.420;2023-11-21T04:27:45;101354.38;;;7.57;100.00
75418;BME280;63997;52.112;5.420;2023-11-21T04:30:13;101362.84;;;7.59;100.00
75418;BME280;63997;52.112;5.420;2023-11-21T04:32:40;101365.97;;;7.61;100.00
75418;BME280;63997;52.112;5.420;2023-11-21T04:35:08;101362.78;;;7.64;100.00
75418;BME280;63997;52.112;5.420;2023-11-21T04:37:35;101373.06;;;7.65;100.00
75418;BME280;63997;52.112;5.420;2023-11-21T04:40:02;101374.66;;;7.66;100.00
75418;BME280;63997;52.112;5.420;2023-11-21T04:42:35;101377.78;;;7.68;100.00
75418;BME280;63997;52.112;5.420;2023-11-21T04:45:04;101388.38;;;7.68;100.00
75418;BME280;63997;52.112;5.420;2023-11-21T04:47:35;101392.81;;;7.73;100.00
75418;BME280;63997;52.112;5.420;2023-11-21T04:50:03;101384.59;;;7.75;100.00
75418;BME280;63997;52.112;5.420;2023-11-21T04:52:30;101388.81;;;7.76;100.00
75418;BME280;63997;52.112;5.420;2023-11-21T04:54:56;101389.31;;;7.78;100.00
75418;BME280;63997;52.112;5.420;2023-11-21T04:57:24;101387.16;;;7.80;100.00
75418;BME280;63997;52.112;5.420;2023-11-21T04:59:51;101390.31;;;7.82;100.00
75418;BME280;63997;52.112;5.420;2023-11-21T05:02:17;101385.81;;;7.82;100.00
75418;BME280;63997;52.112;5.420;2023-11-21T05:05:01;101390.31;;;7.82;100.00
75418;BME280;63997;52.112;5.420;2023-11-21T05:07:28;101389.53;;;7.81;100.00
75418;BME280;63997;52.112;5.420;2023-11-21T05:09:57;101399.53;;;7.84;100.00
75418;BME280;63997;52.112;5.420;2023-11-21T05:12:24;101405.34;;;7.86;100.00
75418;BME280;63997;52.112;5.420;2023-11-21T05:14:51;101401.94;;;7.86;100.00
75418;BME280;63997;52.112;5.420;2023-11-21T05:17:17;101401.63;;;7.87;100.00
75418;BME280;63997;52.112;5.420;2023-11-21T05:19:44;101401.34;;;7.89;100.00
75418;BME280;63997;52.112;5.420;2023-11-21T05:22:15;101410.59;;;7.91;100.00
75418;BME280;63997;52.112;5.420;2023-11-21T05:24:41;101410.28;;;7.93;100.00
75418;BME280;63997;52.112;5.420;2023-11-21T05:27:08;101413.44;;;7.95;100.00
75418;BME280;63997;52.112;5.420;2023-11-21T05:29:35;101412.88;;;7.98;100.00
75418;BME280;63997;52.112;5.420;2023-11-21T05:32:04;101417.09;;;7.99;100.00
75418;BME280;63997;52.112;5.420;2023-11-21T05:34:30;101419.44;;;8.01;100.00
75418;BME280;63997;52.112;5.420;2023-11-21T05:36:57;101419.16;;;8.02;100.00
75418;BME280;63997;52.112;5.420;2023-11-21T05:39:24;101422.31;;;8.04;100.00
75418;BME280;63997;52.112;5.420;2023-11-21T05:41:51;101420.16;;;8.06;100.00
75418;BME280;63997;52.112;5.420;2023-11-21T05:44:17;101428.63;;;8.08;100.00
75418;BME280;63997;52.112;5.420;2023-11-21T05:46:44;101433.91;;;8.08;100.00
75418;BME280;63997;52.112;5.420;2023-11-21T05:49:11;101436.28;;;8.10;100.00
75418;BME280;63997;52.112;5.420;2023-11-21T05:51:37;101445.50;;;8.12;100.00
75418;BME280;63997;52.112;5.420;2023-11-21T05:54:05;101436.47;;;8.13;100.00
75418;BME280;63997;52.112;5.420;2023-11-21T05:56:31;101443.38;;;8.14;100.00
75418;BME280;63997;52.112;5.420;2023-11-21T05:58:57;101448.66;;;8.14;100.00
75418;BME280;63997;52.112;5.420;2023-11-21T06:01:25;101449.44;;;8.15;100.00
75418;BME280;63997;52.112;5.420;2023-11-21T06:03:54;101453.38;;;8.17;100.00
75418;BME280;63997;52.112;5.420;2023-11-21T06:06:25;101453.38;;;8.17;100.00
75418;BME280;63997;52.112;5.420;2023-11-21T06:08:52;101460.25;;;8.18;100.00
75418;BME280;63997;52.112;5.420;2023-11-21T06:11:18;101459.19;;;8.19;100.00
75418;BME280;63997;52.112;5.420;2023-11-21T06:13:45;101472.44;;;8.19;100.00
75418;BME280;63997;52.112;5.420;2023-11-21T06:16:11;101479.31;;;8.20;100.00
75418;BME280;63997;52.112;5.420;2023-11-21T06:18:43;101473.72;;;8.22;100.00
75418;BME280;63997;52.112;5.420;2023-11-21T06:21:10;101477.16;;;8.22;100.00
75418;BME280;63997;52.112;5.420;2023-11-21T06:23:37;101477.63;;;8.25;100.00
75418;BME280;63997;52.112;5.420;2023-11-21T06:26:04;101484.25;;;8.27;100.00
75418;BME280;63997;52.112;5.420;2023-11-21T06:28:31;101482.09;;;8.29;100.00
75418;BME280;63997;52.112;5.420;2023-11-21T06:30:58;101482.31;;;8.33;100.00
75418;BME280;63997;52.112;5.420;2023-11-21T06:33:24;101482.78;;;8.35;100.00
75418;BME280;63997;52.112;5.420;2023-11-21T06:35:53;101480.16;;;8.35;100.00
75418;BME280;63997;52.112;5.420;2023-11-21T06:38:21;101484.13;;;8.37;100.00
75418;BME280;63997;52.112;5.420;2023-11-21T06:40:47;101495.16;;;8.44;100.00
75418;BME280;63997;52.112;5.420;2023-11-21T06:43:14;101492.78;;;8.43;100.00
75418;BME280;63997;52.112;5.420;2023-11-21T06:45:41;101499.66;;;8.44;100.00
75418;BME280;63997;52.112;5.420;2023-11-21T06:48:07;101497.78;;;8.44;100.00
75418;BME280;63997;52.112;5.420;2023-11-21T06:50:34;101497.50;;;8.46;100.00
75418;BME280;63997;52.112;5.420;2023-11-21T06:53:01;101500.94;;;8.46;100.00
75418;BME280;63997;52.112;5.420;2023-11-21T06:55:30;101509.69;;;8.47;100.00
75418;BME280;63997;52.112;5.420;2023-11-21T06:57:57;101505.69;;;8.50;100.00
75418;BME280;63997;52.112;5.420;2023-11-21T07:00:24;101506.94;;;8.52;100.00
75418;BME280;63997;52.112;5.420;2023-11-21T07:02:50;101512.25;;;8.52;100.00
75418;BME280;63997;52.112;5.420;2023-11-21T07:05:17;101521.00;;;8.53;100.00
75418;BME280;63997;52.112;5.420;2023-11-21T07:07:48;101522.28;;;8.55;100.00
75418;BME280;63997;52.112;5.420;2023-11-21T07:10:14;101531.03;;;8.56;100.00
75418;BME280;63997;52.112;5.420;2023-11-21T07:12:41;101529.94;;;8.57;100.00
75418;BME280;63997;52.112;5.420;2023-11-21T07:15:08;101537.34;;;8.60;100.00
75418;BME280;63997;52.112;5.420;2023-11-21T07:17:37;101535.47;;;8.60;100.00
75418;BME280;63997;52.112;5.420;2023-11-21T07:20:07;101543.91;;;8.62;100.00
75418;BME280;63997;52.112;5.420;2023-11-21T07:22:34;101546.28;;;8.64;100.00
75418;BME280;63997;52.112;5.420;2023-11-21T07:25:01;101546.50;;;8.67;100.00
75418;BME280;63997;52.112;5.420;2023-11-21T07:27:28;101556.03;;;8.68;100.00
75418;BME280;63997;52.112;5.420;2023-11-21T07:29:54;101558.13;;;8.71;100.00
75418;BME280;63997;52.112;5.420;2023-11-21T07:32:21;101560.69;;;8.77;100.00
75418;BME280;63997;52.112;5.420;2023-11-21T07:34:47;101562.66;;;8.85;100.00
75418;BME280;63997;52.112;5.420;2023-11-21T07:37:14;101558.28;;;8.94;100.00
75418;BME280;63997;52.112;5.420;2023-11-21T07:39:41;101558.22;;;8.99;100.00
75418;BME280;63997;52.112;5.420;2023-11-21T07:42:08;101560.78;;;9.04;100.00
75418;BME280;63997;52.112;5.420;2023-11-21T07:44:35;101567.59;;;9.10;100.00
75418;BME280;63997;52.112;5.420;2023-11-21T07:47:01;101568.06;;;9.12;100.00
75418;BME280;63997;52.112;5.420;2023-11-21T07:49:28;101569.94;;;9.12;100.00
75418;BME280;63997;52.112;5.420;2023-11-21T07:51:54;101578.69;;;9.12;100.00
75418;BME280;63997;52.112;5.420;2023-11-21T07:54:21;101577.81;;;9.17;100.00
75418;BME280;63997;52.112;5.420;2023-11-21T07:56:48;101587.66;;;9.16;100.00
75418;BME280;63997;52.112;5.420;2023-11-21T07:59:14;101591.88;;;9.17;100.00
75418;BME280;63997;52.112;5.420;2023-11-21T08:01:40;101590.72;;;9.23;100.00
75418;BME280;63997;52.112;5.420;2023-11-21T08:04:09;101597.50;;;9.30;100.00
75418;BME280;63997;52.112;5.420;2023-11-21T08:06:35;101608.81;;;9.35;100.00
75418;BME280;63997;52.112;5.420;2023-11-21T08:09:02;101617.78;;;9.39;100.00
75418;BME280;63997;52.112;5.420;2023-11-21T08:11:29;101615.34;;;9.43;100.00
75418;BME280;63997;52.112;5.420;2023-11-21T08:13:57;101613.66;;;9.47;100.00
75418;BME280;63997;52.112;5.420;2023-11-21T08:16:25;101621.06;;;9.50;100.00
75418;BME280;63997;52.112;5.420;2023-11-21T08:18:52;101628.16;;;9.54;100.00
75418;BME280;63997;52.112;5.420;2023-11-21T08:21:18;101627.84;;;9.56;100.00
75418;BME280;63997;52.112;5.420;2023-11-21T08:23:45;101638.38;;;9.61;100.00
75418;BME280;63997;52.112;5.420;2023-11-21T08:26:15;101649.72;;;9.67;100.00
75418;BME280;63997;52.112;5.420;2023-11-21T08:28:42;101650.50;;;9.67;100.00
75418;BME280;63997;52.112;5.420;2023-11-21T08:31:08;101651.78;;;9.70;100.00
75418;BME280;63997;52.112;5.420;2023-11-21T08:33:37;101654.44;;;9.70;100.00
75418;BME280;63997;52.112;5.420;2023-11-21T08:36:10;101663.19;;;9.70;100.00
75418;BME280;63997;52.112;5.420;2023-11-21T08:38:39;101662.41;;;9.70;100.00
75418;BME280;63997;52.112;5.420;2023-11-21T08:41:07;101674.88;;;9.69;100.00
75418;BME280;63997;52.112;5.420;2023-11-21T08:43:35;101681.28;;;9.68;100.00
75418;BME280;63997;52.112;5.420;2023-11-21T08:46:06;101677.34;;;9.66;100.00
75418;BME280;63997;52.112;5.420;2023-11-21T08:48:35;101687.38;;;9.69;100.00
75418;BME280;63997;52.112;5.420;2023-11-21T08:51:03;101688.16;;;9.69;100.00
75418;BME280;63997;52.112;5.420;2023-11-21T08:53:30;101687.59;;;9.72;100.00
75418;BME280;63997;52.112;5.420;2023-11-21T08:55:57;101687.78;;;9.76;100.00
75418;BME280;63997;52.112;5.420;2023-11-21T08:58:23;101697.34;;;9.77;100.00
75418;BME280;63997;52.112;5.420;2023-11-21T09:00:50;101691.75;;;9.78;100.00
75418;BME280;63997;52.112;5.420;2023-11-21T09:03:16;101690.66;;;9.79;100.00
75418;BME280;63997;52.112;5.420;2023-11-21T09:05:43;101692.44;;;9.84;100.00
75418;BME280;63997;52.112;5.420;2023-11-21T09:08:10;101693.63;;;9.92;100.00
75418;BME280;63997;52.112;5.420;2023-11-21T09:10:37;101699.06;;;10.00;100.00
75418;BME280;63997;52.112;5.420;2023-11-21T09:13:05;101721.41;;;10.13;100.00
75418;BME280;63997;52.112;5.420;2023-11-21T09:15:35;101729.28;;;10.18;100.00
75418;BME280;63997;52.112;5.420;2023-11-21T09:18:01;101725.84;;;10.18;100.00
75418;BME280;63997;52.112;5.420;2023-11-21T09:20:28;101730.38;;;10.17;100.00
75418;BME280;63997;52.112;5.420;2023-11-21T09:22:55;101737.56;;;10.17;100.00
75418;BME280;63997;52.112;5.420;2023-11-21T09:25:22;101731.75;;;10.15;100.00
75418;BME280;63997;52.112;5.420;2023-11-21T09:27:49;101734.69;;;10.13;100.00
75418;BME280;63997;52.112;5.420;2023-11-21T09:30:15;101730.47;;;10.12;100.00
75418;BME280;63997;52.112;5.420;2023-11-21T09:32:42;101744.25;;;10.14;100.00
75418;BME280;63997;52.112;5.420;2023-11-21T09:35:12;101752.81;;;10.11;100.00
75418;BME280;63997;52.112;5.420;2023-11-21T09:37:40;101755.19;;;10.13;100.00
75418;BME280;63997;52.112;5.420;2023-11-21T09:40:10;101761.28;;;10.13;100.00
75418;BME280;63997;52.112;5.420;2023-11-21T09:42:40;101767.69;;;10.12;100.00
75418;BME280;63997;52.112;5.420;2023-11-21T09:45:25;101779.41;;;10.11;100.00
75418;BME280;63997;52.112;5.420;2023-11-21T09:47:55;101775.66;;;10.12;100.00
75418;BME280;63997;52.112;5.420;2023-11-21T09:50:23;101782.06;;;10.11;100.00
75418;BME280;63997;52.112;5.420;2023-11-21T09:53:09;101782.63;;;10.08;100.00
75418;BME280;63997;52.112;5.420;2023-11-21T09:55:42;101785.88;;;10.05;100.00
75418;BME280;63997;52.112;5.420;2023-11-21T09:58:10;101786.94;;;10.04;100.00
75418;BME280;63997;52.112;5.420;2023-11-21T10:00:41;101791.78;;;10.02;100.00
75418;BME280;63997;52.112;5.420;2023-11-21T10:03:08;101792.56;;;10.02;100.00
75418;BME280;63997;52.112;5.420;2023-11-21T10:05:36;101798.66;;;10.03;100.00
75418;BME280;63997;52.112;5.420;2023-11-21T10:08:09;101791.78;;;10.02;100.00
75418;BME280;63997;52.112;5.420;2023-11-21T10:10:43;101798.66;;;10.03;100.00
75418;BME280;63997;52.112;5.420;2023-11-21T10:13:15;101798.19;;;10.01;100.00
75418;BME280;63997;52.112;5.420;2023-11-21T10:15:49;101807.81;;;9.97;100.00
75418;BME280;63997;52.112;5.420;2023-11-21T10:18:17;101814.97;;;9.96;100.00
75418;BME280;63997;52.112;5.420;2023-11-21T10:20:44;101814.19;;;9.96;100.00
75418;BME280;63997;52.112;5.420;2023-11-21T10:23:19;101828.50;;;10.00;100.00
75418;BME280;63997;52.112;5.420;2023-11-21T10:25:45;101827.09;;;10.02;100.00
75418;BME280;63997;52.112;5.420;2023-11-21T10:28:12;101829.97;;;10.06;100.00
75418;BME280;63997;52.112;5.420;2023-11-21T10:30:38;101835.50;;;10.10;100.00
75418;BME280;63997;52.112;5.420;2023-11-21T10:33:05;101836.78;;;10.12;100.00
75418;BME280;63997;52.112;5.420;2023-11-21T10:38:08;101841.81;;;10.14;100.00
75418;BME280;63997;52.112;5.420;2023-11-21T10:40:42;101845.78;;;10.16;100.00
75418;BME280;63997;52.112;5.420;2023-11-21T10:43:11;101858.06;;;10.12;100.00
75418;BME280;63997;52.112;5.420;2023-11-21T10:45:42;101861.88;;;10.06;100.00
75418;BME280;63997;52.112;5.420;2023-11-21T10:48:10;101868.28;;;10.05;100.00
75418;BME280;63997;52.112;5.420;2023-11-21T10:50:37;101878.38;;;10.03;100.00
75418;BME280;63997;52.112;5.420;2023-11-21T10:53:04;101882.72;;;9.99;100.00
75418;BME280;63997;52.112;5.420;2023-11-21T10:55:35;101890.41;;;10.00;100.00
75418;BME280;63997;52.112;5.420;2023-11-21T10:58:03;101888.31;;;9.97;100.00
75418;BME280;63997;52.112;5.420;2023-11-21T11:00:33;101892.34;;;9.95;100.00
75418;BME280;63997;52.112;5.420;2023-11-21T11:03:00;101893.13;;;9.95;100.00
75418;BME280;63997;52.112;5.420;2023-11-21T11:05:30;101899.22;;;9.96;100.00
75418;BME280;63997;52.112;5.420;2023-11-21T11:08:00;101898.66;;;9.99;100.00
75418;BME280;63997;52.112;5.420;2023-11-21T11:10:29;101896.50;;;10.01;100.00
75418;BME280;63997;52.112;5.420;2023-11-21T11:12:56;101896.50;;;10.01;100.00
75418;BME280;63997;52.112;5.420;2023-11-21T11:15:28;101895.91;;;10.04;100.00
75418;BME280;63997;52.112;5.420;2023-11-21T11:17:54;101890.09;;;10.02;100.00
75418;BME280;63997;52.112;5.420;2023-11-21T11:20:29;101900.44;;;10.03;100.00
75418;BME280;63997;52.112;5.420;2023-11-21T11:26:12;101896.28;;;9.97;100.00
75418;BME280;63997;52.112;5.420;2023-11-21T11:34:34;101909.63;;;9.92;100.00
75418;BME280;63997;52.112;5.420;2023-11-21T11:37:05;101921.06;;;9.93;100.00
75418;BME280;63997;52.112;5.420;2023-11-21T11:39:38;101914.75;;;9.89;100.00
75418;BME280;63997;52.112;5.420;2023-11-21T11:42:12;101921.34;;;9.91;100.00
75418;BME280;63997;52.112;5.420;2023-11-21T11:47:26;101920.97;;;9.98;100.00
75418;BME280;63997;52.112;5.420;2023-11-21T11:50:09;101923.06;;;10.01;100.00
75418;BME280;63997;52.112;5.420;2023-11-21T11:52:48;101927.59;;;10.00;100.00
75418;BME280;63997;52.112;5.420;2023-11-21T11:55:19;101933.72;;;10.01;100.00
75418;BME280;63997;52.112;5.420;2023-11-21T11:57:47;101935.88;;;9.99;100.00
75418;BME280;63997;52.112;5.420;2023-11-21T12:00:22;101941.38;;;10.02;100.00
75418;BME280;63997;52.112;5.420;2023-11-21T12:03:02;101949.88;;;10.04;100.00
75418;BME280;63997;52.112;5.420;2023-11-21T12:05:32;101949.59;;;10.06;100.00
75418;BME280;63997;52.112;5.420;2023-11-21T12:08:01;101950.06;;;10.08;100.00
75418;BME280;63997;52.112;5.420;2023-11-21T12:10:30;101955.38;;;10.08;100.00
75418;BME280;63997;52.112;5.420;2023-11-21T12:12:59;101953.81;;;10.07;100.00
75418;BME280;63997;52.112;5.420;2023-11-21T12:15:26;101960.72;;;10.08;100.00
75418;BME280;63997;52.112;5.420;2023-11-21T12:17:56;101959.63;;;10.09;100.00
75418;BME280;63997;52.112;5.420;2023-11-21T12:20:23;101963.38;;;10.08;100.00
75418;BME280;63997;52.112;5.420;2023-11-21T12:22:51;101973.69;;;10.10;100.00
75418;BME280;63997;52.112;5.420;2023-11-21T12:25:20;101964.94;;;10.09;100.00
75418;BME280;63997;52.112;5.420;2023-11-21T12:27:49;101967.91;;;10.07;100.00
75418;BME280;63997;52.112;5.420;2023-11-21T12:30:18;101972.41;;;10.07;100.00
75418;BME280;63997;52.112;5.420;2023-11-21T12:32:48;101971.94;;;10.05;100.00
75418;BME280;63997;52.112;5.420;2023-11-21T12:35:16;101966.63;;;10.05;100.00
75418;BME280;63997;52.112;5.420;2023-11-21T12:37:46;101965.31;;;10.02;100.00
75418;BME280;63997;52.112;5.420;2023-11-21T12:40:14;101971.47;;;9.98;100.00
75418;BME280;63997;52.112;5.420;2023-11-21T12:42:45;101977.09;;;9.96;100.00
75418;BME280;63997;52.112;5.420;2023-11-21T12:45:18;101978.09;;;10.00;100.00
75418;BME280;63997;52.112;5.420;2023-11-21T12:47:48;101985.78;;;10.02;100.00
75418;BME280;63997;52.112;5.420;2023-11-21T12:50:23;101990.00;;;10.03;100.00
75418;BME280;63997;52.112;5.420;2023-11-21T12:52:51;101992.66;;;10.03;100.00
75418;BME280;63997;52.112;5.420;2023-11-21T12:55:19;101998.28;;;10.01;100.00
75418;BME280;63997;52.112;5.420;2023-11-21T12:57:55;101999.34;;;10.00;100.00
75418;BME280;63997;52.112;5.420;2023-11-21T13:00:31;102003.09;;;9.99;100.00
75418;BME280;63997;52.112;5.420;2023-11-21T13:02:59;102000.63;;;10.03;100.00
75418;BME280;63997;52.112;5.420;2023-11-21T13:05:27;102003.03;;;10.04;100.00
75418;BME280;63997;52.112;5.420;2023-11-21T13:07:56;102005.69;;;10.04;100.00